Time;durP1;ratioP1;P1;durP2;ratioP2;P2;SDS_P1;SDS_P2;PMS_P1;PMS_P2;Temp;Humidity;BMP_temperature;BMP_pressure;BME280_temperature;BME280_humidity;BME280_pressure;Samples;Min_cycle;Max_cycle;Signal;HPM_P1;HPM_P2
2022/11/06 00:00:22;;;;;;;0.10;0.10;;;10.00;99.90;;;;;;5073096;28;20051;-79
2022/11/06 00:02:47;;;;;;;0.00;0.00;;;10.10;99.90;;;;;;5056672;28;20626;-79
2022/11/06 00:07:58;;;;;;;0.00;0.00;;;9.90;99.90;;;;;;5072903;28;20488;-79
2022/11/06 00:10:24;;;;;;;0.00;0.00;;;9.90;99.90;;;;;;5072842;28;20043;-79
2022/11/06 00:12:50;;;;;;;1.02;0.35;;;10.00;99.90;;;;;;5056785;28;20095;-79
2022/11/06 00:15:16;;;;;;;0.90;0.30;;;10.00;99.90;;;;;;5055535;28;20067;-79
2022/11/06 00:17:42;;;;;;;0.30;0.30;;;9.90;99.90;;;;;;5056233;28;20206;-79
2022/11/06 00:20:08;;;;;;;0.10;0.10;;;9.90;99.90;;;;;;5072974;28;20084;-78
2022/11/06 00:22:37;;;;;;;0.20;0.00;;;9.90;99.90;;;;;;5055790;28;20051;-78
2022/11/06 00:25:06;;;;;;;0.15;0.15;;;9.90;99.90;;;;;;5072560;28;20131;-78
2022/11/06 00:27:36;;;;;;;0.47;0.15;;;9.90;99.90;;;;;;5056038;28;20048;-79
2022/11/06 00:30:02;;;;;;;0.00;0.00;;;9.90;99.90;;;;;;5073163;28;20052;-78
2022/11/06 00:32:28;;;;;;;0.05;0.00;;;9.90;99.90;;;;;;5072863;28;20090;-79
2022/11/06 00:34:53;;;;;;;0.25;0.13;;;9.90;99.90;;;;;;5055659;28;20091;-78
2022/11/06 00:37:19;;;;;;;0.47;0.45;;;9.90;99.90;;;;;;5055668;28;20053;-78
2022/11/06 00:39:44;;;;;;;0.00;0.00;;;9.90;99.90;;;;;;5055901;28;20438;-78
2022/11/06 00:42:10;;;;;;;0.77;0.22;;;9.80;99.90;;;;;;5055870;28;20431;-78
2022/11/06 00:44:36;;;;;;;0.00;0.00;;;9.90;99.90;;;;;;5055933;28;20075;-78
2022/11/06 00:47:01;;;;;;;0.35;0.20;;;9.90;99.90;;;;;;5072844;28;20044;-78
2022/11/06 00:49:27;;;;;;;0.20;0.15;;;9.80;99.90;;;;;;5072084;28;20041;-78
2022/11/06 00:51:53;;;;;;;0.10;0.10;;;9.90;99.90;;;;;;5055362;28;20074;-79
2022/11/06 00:54:19;;;;;;;0.25;0.10;;;9.90;99.90;;;;;;5072459;28;20056;-79
2022/11/06 00:56:44;;;;;;;0.00;0.00;;;9.90;99.90;;;;;;5055904;28;20040;-78
2022/11/06 00:59:12;;;;;;;0.13;0.10;;;9.90;99.90;;;;;;5072318;28;20093;-78
2022/11/06 01:01:42;;;;;;;0.00;0.00;;;9.90;99.90;;;;;;5056000;28;20060;-78
2022/11/06 01:04:18;;;;;;;0.80;0.28;;;9.90;99.90;;;;;;5055591;28;20488;-78
2022/11/06 01:06:46;;;;;;;0.00;0.00;;;9.90;99.90;;;;;;5055619;28;20048;-78
2022/11/06 01:09:14;;;;;;;2.72;0.80;;;9.90;99.90;;;;;;5055637;28;20048;-78
2022/11/06 01:11:43;;;;;;;0.00;0.00;;;9.90;99.90;;;;;;5072699;28;20429;-78
2022/11/06 01:14:12;;;;;;;0.17;0.05;;;9.90;99.90;;;;;;5055550;28;20454;-78
2022/11/06 01:16:37;;;;;;;0.75;0.28;;;9.90;99.90;;;;;;5072276;28;20049;-79
2022/11/06 01:19:04;;;;;;;0.00;0.00;;;9.80;99.90;;;;;;5072078;28;20054;-78
2022/11/06 01:21:36;;;;;;;0.10;0.10;;;9.90;99.90;;;;;;5055729;28;20144;-78
2022/11/06 01:24:10;;;;;;;0.00;0.00;;;9.90;99.90;;;;;;5055763;28;20113;-78
2022/11/06 01:26:36;;;;;;;0.00;0.00;;;9.80;99.90;;;;;;5074821;28;20349;-78
2022/11/06 01:29:03;;;;;;;0.00;0.00;;;9.80;99.90;;;;;;5075946;28;20484;-78
2022/11/06 01:31:31;;;;;;;1.55;0.90;;;9.80;99.90;;;;;;5059097;28;20053;-79
2022/11/06 01:33:58;;;;;;;0.10;0.10;;;9.80;99.90;;;;;;5059256;28;20117;-79
2022/11/06 01:36:25;;;;;;;0.30;0.30;;;9.80;99.90;;;;;;5075539;28;20044;-79
2022/11/06 01:38:52;;;;;;;0.13;0.05;;;9.80;99.90;;;;;;5059180;28;20047;-79
2022/11/06 01:41:21;;;;;;;0.43;0.10;;;9.80;99.90;;;;;;5075807;28;20051;-78
2022/11/06 01:43:53;;;;;;;0.52;0.50;;;9.80;99.90;;;;;;5058983;28;20123;-79
2022/11/06 01:46:20;;;;;;;0.00;0.00;;;9.80;99.90;;;;;;5075560;28;20086;-78
2022/11/06 01:48:53;;;;;;;0.98;0.75;;;9.70;99.90;;;;;;5075945;28;20052;-78
2022/11/06 01:51:23;;;;;;;0.00;0.00;;;9.70;99.90;;;;;;5058948;28;20224;-78
2022/11/06 01:53:50;;;;;;;0.00;0.00;;;9.70;99.90;;;;;;5058650;28;20059;-78
2022/11/06 01:56:17;;;;;;;0.00;0.00;;;9.70;99.90;;;;;;5075129;28;20045;-79
2022/11/06 01:58:44;;;;;;;0.32;0.05;;;9.70;99.90;;;;;;5075208;28;20507;-79
2022/11/06 02:01:10;;;;;;;0.00;0.00;;;9.70;99.90;;;;;;5075866;28;20044;-79
2022/11/06 02:03:38;;;;;;;0.75;0.10;;;9.60;99.90;;;;;;5058666;28;20044;-78
2022/11/06 02:06:05;;;;;;;0.10;0.05;;;9.60;99.90;;;;;;5075145;28;20052;-79
2022/11/06 02:08:31;;;;;;;11.70;1.38;;;9.60;99.90;;;;;;5075188;28;20060;-78
2022/11/06 02:10:56;;;;;;;0.38;0.10;;;9.70;99.90;;;;;;5075081;28;20388;-79
2022/11/06 02:13:35;;;;;;;0.52;0.20;;;9.70;99.90;;;;;;5075073;28;20496;-79
2022/11/06 02:16:20;;;;;;;0.70;0.00;;;9.60;99.90;;;;;;5075223;28;20041;-79
2022/11/06 02:19:01;;;;;;;0.00;0.00;;;9.60;99.90;;;;;;5058395;28;20143;-79
2022/11/06 02:21:59;;;;;;;0.00;0.00;;;9.70;99.90;;;;;;5074833;28;20098;-78
2022/11/06 02:24:39;;;;;;;0.30;0.05;;;9.70;99.90;;;;;;5075223;28;20055;-78
2022/11/06 02:27:17;;;;;;;0.40;0.30;;;9.70;99.90;;;;;;5075063;28;20556;-78
2022/11/06 02:30:07;;;;;;;0.20;0.20;;;9.60;99.90;;;;;;5057999;28;20616;-78
2022/11/06 02:32:51;;;;;;;1.45;0.32;;;9.60;99.90;;;;;;5074896;28;20052;-78
2022/11/06 02:35:23;;;;;;;0.30;0.10;;;9.60;99.90;;;;;;5074543;28;20047;-78
2022/11/06 02:37:53;;;;;;;0.10;0.10;;;9.50;99.90;;;;;;5057566;28;20123;-78
2022/11/06 02:40:22;;;;;;;0.00;0.00;;;9.50;99.90;;;;;;5074807;28;20563;-78
2022/11/06 02:42:50;;;;;;;0.65;0.28;;;9.50;99.90;;;;;;5057803;28;20489;-78
2022/11/06 02:45:17;;;;;;;0.00;0.00;;;9.40;99.90;;;;;;5074859;28;20044;-78
2022/11/06 02:47:48;;;;;;;0.03;0.00;;;9.40;99.90;;;;;;5074464;28;20060;-78
2022/11/06 02:50:21;;;;;;;0.10;0.10;;;9.50;99.90;;;;;;5074265;28;20052;-78
2022/11/06 02:52:56;;;;;;;0.15;0.15;;;9.40;99.90;;;;;;5074046;28;20061;-78
2022/11/06 02:55:30;;;;;;;0.00;0.00;;;9.40;99.90;;;;;;5058075;28;20044;-78
2022/11/06 02:58:21;;;;;;;0.00;0.00;;;9.40;99.90;;;;;;5057762;28;20067;-78
2022/11/06 03:00:56;;;;;;;0.00;0.00;;;9.40;99.90;;;;;;5016834;28;20127;-78
2022/11/06 03:03:33;;;;;;;0.08;0.08;;;9.30;99.90;;;;;;5000920;28;20065;-78
2022/11/06 03:06:18;;;;;;;0.10;0.10;;;9.30;99.90;;;;;;5016795;28;20056;-78
2022/11/06 03:08:53;;;;;;;0.00;0.00;;;9.40;99.90;;;;;;5000318;28;20049;-78
2022/11/06 03:11:26;;;;;;;0.00;0.00;;;9.40;99.90;;;;;;5016600;28;20057;-78
2022/11/06 03:14:03;;;;;;;0.00;0.00;;;9.30;99.90;;;;;;5016590;28;20046;-78
2022/11/06 03:16:59;;;;;;;0.00;0.00;;;9.40;99.90;;;;;;5000315;28;20053;-78
2022/11/06 03:19:29;;;;;;;0.00;0.00;;;9.40;99.90;;;;;;4941778;28;20190;-78
2022/11/06 03:21:57;;;;;;;2.33;0.38;;;9.40;99.90;;;;;;4942018;28;20050;-78
2022/11/06 03:24:32;;;;;;;0.00;0.00;;;9.40;99.90;;;;;;4941922;28;20093;-78
2022/11/06 03:27:05;;;;;;;0.20;0.20;;;9.40;99.90;;;;;;4957999;28;20051;-78
2022/11/06 03:29:42;;;;;;;0.00;0.00;;;9.40;99.90;;;;;;4941762;28;20055;-78
2022/11/06 03:32:22;;;;;;;0.00;0.00;;;9.40;99.90;;;;;;4941979;28;20138;-78
2022/11/06 03:34:54;;;;;;;0.00;0.00;;;9.40;99.90;;;;;;4942220;28;20150;-78
2022/11/06 03:37:28;;;;;;;1.17;0.35;;;9.40;99.90;;;;;;4948042;28;20073;-78
2022/11/06 03:39:57;;;;;;;0.20;0.20;;;9.50;99.90;;;;;;4961063;28;20058;-78
2022/11/06 03:42:27;;;;;;;0.00;0.00;;;9.40;99.90;;;;;;4976857;28;20681;-78
2022/11/06 03:44:59;;;;;;;0.00;0.00;;;9.50;99.90;;;;;;4976676;28;20102;-79
2022/11/06 03:47:31;;;;;;;0.00;0.00;;;9.50;99.90;;;;;;4977178;28;20042;-78
2022/11/06 03:50:38;;;;;;;0.10;0.00;;;9.50;99.90;;;;;;4975872;28;20144;-78
2022/11/06 03:53:13;;;;;;;1.55;0.75;;;9.50;99.90;;;;;;4972782;28;20055;-78
2022/11/06 03:55:58;;;;;;;0.00;0.00;;;9.50;99.90;;;;;;4974857;28;20050;-78
2022/11/06 03:58:32;;;;;;;0.20;0.00;;;9.50;99.90;;;;;;5020579;28;20062;-78
2022/11/06 04:01:02;;;;;;;0.08;0.00;;;9.50;99.90;;;;;;4996353;28;20116;-78
2022/11/06 04:03:38;;;;;;;0.38;0.00;;;9.60;99.90;;;;;;4996015;28;20045;-78
2022/11/06 04:06:04;;;;;;;0.00;0.00;;;9.60;99.90;;;;;;4979765;28;20387;-78
2022/11/06 04:14:07;;;;;;;0.00;0.00;;;9.60;99.90;;;;;;4995720;28;20725;-78
2022/11/06 04:17:01;;;;;;;0.55;0.00;;;9.60;99.90;;;;;;4979523;28;20050;-78
2022/11/06 04:19:27;;;;;;;0.32;0.22;;;9.60;99.90;;;;;;4993769;28;20053;-78
2022/11/06 04:22:23;;;;;;;0.63;0.63;;;9.60;99.90;;;;;;4995557;28;20095;-78
2022/11/06 04:28:10;;;;;;;2.53;0.50;;;9.60;99.90;;;;;;5072834;28;20177;-79
2022/11/06 04:31:04;;;;;;;0.00;0.00;;;9.60;99.90;;;;;;5072685;28;20059;-78
2022/11/06 04:33:58;;;;;;;0.00;0.00;;;9.50;99.90;;;;;;5052004;28;20179;-78
2022/11/06 04:36:44;;;;;;;0.00;0.00;;;9.50;99.90;;;;;;5018308;28;20045;-78
2022/11/06 04:39:36;;;;;;;0.00;0.00;;;9.50;99.90;;;;;;5018646;28;20139;-78
2022/11/06 04:42:25;;;;;;;0.00;0.00;;;9.40;99.90;;;;;;5034817;28;20496;-78
2022/11/06 04:44:59;;;;;;;0.00;0.00;;;9.40;99.90;;;;;;5035171;28;20071;-78
2022/11/06 04:47:25;;;;;;;0.00;0.00;;;9.40;99.90;;;;;;5034750;28;20052;-78
2022/11/06 04:49:52;;;;;;;1.25;0.55;;;9.40;99.90;;;;;;5034264;28;20389;-78
2022/11/06 04:52:22;;;;;;;0.00;0.00;;;9.40;99.90;;;;;;5051164;28;20057;-78
2022/11/06 04:54:49;;;;;;;0.00;0.00;;;9.40;99.90;;;;;;5018435;28;20049;-78
2022/11/06 04:57:14;;;;;;;0.00;0.00;;;9.40;99.90;;;;;;5034798;28;20461;-78
2022/11/06 04:59:40;;;;;;;0.52;0.20;;;9.40;99.90;;;;;;5034999;28;20073;-79
2022/11/06 05:02:06;;;;;;;0.00;0.00;;;9.40;99.90;;;;;;5022210;28;20045;-78
2022/11/06 05:04:32;;;;;;;0.52;0.17;;;9.40;99.90;;;;;;5022271;28;20086;-78
2022/11/06 05:06:58;;;;;;;0.00;0.00;;;9.40;99.90;;;;;;5038636;28;20158;-78
2022/11/06 05:09:24;;;;;;;0.17;0.15;;;9.40;99.90;;;;;;5039908;28;20066;-78
2022/11/06 05:11:50;;;;;;;0.00;0.00;;;9.40;99.90;;;;;;5059607;28;20052;-78
2022/11/06 05:14:16;;;;;;;0.30;0.28;;;9.40;99.90;;;;;;5059369;28;20049;-78
2022/11/06 05:16:41;;;;;;;0.20;0.20;;;9.40;99.90;;;;;;5059290;28;20404;-78
2022/11/06 05:19:07;;;;;;;0.10;0.10;;;9.40;99.90;;;;;;5059461;28;20044;-78
2022/11/06 05:24:17;;;;;;;0.00;0.00;;;9.40;99.90;;;;;;5076249;28;20056;-78
2022/11/06 05:26:43;;;;;;;0.77;0.28;;;9.40;99.90;;;;;;5075869;28;20044;-78
2022/11/06 05:29:11;;;;;;;0.25;0.25;;;9.40;99.90;;;;;;5076219;28;20464;-78
2022/11/06 05:31:36;;;;;;;0.00;0.00;;;9.40;99.90;;;;;;5059041;28;20477;-78
2022/11/06 05:34:02;;;;;;;0.10;0.10;;;9.40;99.90;;;;;;5075805;28;20086;-78
2022/11/06 05:36:28;;;;;;;1.45;0.10;;;9.40;99.90;;;;;;5075561;28;20033;-78
2022/11/06 05:38:53;;;;;;;7.88;0.35;;;9.40;99.90;;;;;;5075956;28;20048;-78
2022/11/06 05:41:19;;;;;;;0.00;0.00;;;9.40;99.90;;;;;;5058340;28;20496;-79
2022/11/06 05:43:45;;;;;;;0.10;0.10;;;9.50;99.90;;;;;;5059070;28;20051;-78
2022/11/06 05:46:10;;;;;;;1.88;0.28;;;9.50;99.90;;;;;;5075863;28;20053;-78
2022/11/06 05:48:36;;;;;;;0.00;0.00;;;9.50;99.90;;;;;;5059128;28;20055;-78
2022/11/06 05:51:04;;;;;;;0.00;0.00;;;9.50;99.90;;;;;;5058892;28;20416;-78
2022/11/06 05:53:31;;;;;;;0.00;0.00;;;9.50;99.90;;;;;;5075013;28;20088;-78
2022/11/06 05:55:57;;;;;;;0.05;0.05;;;9.50;99.90;;;;;;5058622;28;20400;-78
2022/11/06 05:58:22;;;;;;;0.00;0.00;;;9.50;99.90;;;;;;5058627;28;20040;-78
2022/11/06 06:00:48;;;;;;;0.22;0.22;;;9.50;99.90;;;;;;5075038;28;20049;-78
2022/11/06 06:03:14;;;;;;;0.10;0.10;;;9.50;99.90;;;;;;5058618;28;20059;-78
2022/11/06 06:05:39;;;;;;;0.00;0.00;;;9.50;99.90;;;;;;5075278;28;20055;-78
2022/11/06 06:08:05;;;;;;;0.00;0.00;;;9.60;99.90;;;;;;5058388;28;20415;-78
2022/11/06 06:10:31;;;;;;;0.00;0.00;;;9.60;99.90;;;;;;5058401;28;20044;-78
2022/11/06 06:12:56;;;;;;;0.00;0.00;;;9.60;99.90;;;;;;5057736;28;20063;-78
2022/11/06 06:15:22;;;;;;;0.00;0.00;;;9.60;99.90;;;;;;5058334;28;20041;-78
2022/11/06 06:17:48;;;;;;;0.00;0.00;;;9.50;99.90;;;;;;5058584;28;20052;-78
2022/11/06 06:20:13;;;;;;;0.00;0.00;;;9.60;99.90;;;;;;5075363;28;20041;-78
2022/11/06 06:22:39;;;;;;;0.00;0.00;;;9.60;99.90;;;;;;5075046;28;20090;-78
2022/11/06 06:25:06;;;;;;;0.00;0.00;;;9.60;99.90;;;;;;5074899;28;20102;-78
2022/11/06 06:27:32;;;;;;;0.03;0.03;;;9.60;99.90;;;;;;5074954;28;20087;-80
2022/11/06 06:29:57;;;;;;;0.00;0.00;;;9.60;99.90;;;;;;5074669;28;20076;-78
2022/11/06 06:32:23;;;;;;;0.00;0.00;;;9.60;99.90;;;;;;5074761;28;20054;-78
2022/11/06 06:34:48;;;;;;;0.10;0.10;;;9.60;99.90;;;;;;5058045;28;20043;-78
2022/11/06 06:37:14;;;;;;;0.10;0.00;;;9.60;99.90;;;;;;5074754;28;20067;-78
2022/11/06 06:39:40;;;;;;;0.20;0.20;;;9.60;99.90;;;;;;5057978;28;20051;-78
2022/11/06 06:42:05;;;;;;;0.55;0.08;;;9.60;99.90;;;;;;5074813;28;20044;-79
2022/11/06 06:44:31;;;;;;;0.00;0.00;;;9.60;99.90;;;;;;5074413;28;20047;-78
2022/11/06 06:46:56;;;;;;;0.00;0.00;;;9.60;99.90;;;;;;5074982;28;20040;-78
2022/11/06 06:49:22;;;;;;;0.00;0.00;;;9.60;99.90;;;;;;5074424;28;20373;-78
2022/11/06 06:51:49;;;;;;;16.25;0.38;;;9.60;99.90;;;;;;5074304;28;20101;-78
2022/11/06 06:54:14;;;;;;;0.00;0.00;;;9.60;99.90;;;;;;5056913;28;20052;-79
2022/11/06 06:56:40;;;;;;;0.30;0.17;;;9.60;99.90;;;;;;5058154;28;20059;-79
2022/11/06 06:59:06;;;;;;;0.00;0.00;;;9.70;99.90;;;;;;5059480;28;20056;-78
2022/11/06 07:01:32;;;;;;;0.00;0.00;;;9.60;99.90;;;;;;5093580;28;20511;-78
2022/11/06 07:03:58;;;;;;;0.00;0.00;;;9.70;99.90;;;;;;5094411;28;20040;-78
2022/11/06 07:06:24;;;;;;;0.10;0.10;;;9.70;99.90;;;;;;5077212;28;20436;-78
2022/11/06 07:08:53;;;;;;;0.00;0.00;;;9.70;99.90;;;;;;5077300;28;20044;-78
2022/11/06 07:11:19;;;;;;;0.00;0.00;;;9.70;99.90;;;;;;5077960;28;20114;-78
2022/11/06 07:13:44;;;;;;;0.00;0.00;;;9.70;99.90;;;;;;5077423;28;20044;-78
2022/11/06 07:16:10;;;;;;;0.00;0.00;;;9.70;99.90;;;;;;5093704;28;20032;-78
2022/11/06 07:18:37;;;;;;;0.00;0.00;;;9.80;99.90;;;;;;5093738;28;20403;-79
2022/11/06 07:21:05;;;;;;;0.00;0.00;;;9.80;99.90;;;;;;5094171;28;20044;-78
2022/11/06 07:23:30;;;;;;;0.00;0.00;;;9.80;99.90;;;;;;5092978;28;20044;-78
2022/11/06 07:25:56;;;;;;;1.77;0.63;;;9.80;99.90;;;;;;5093884;28;20048;-78
2022/11/06 07:28:21;;;;;;;0.00;0.00;;;9.80;99.90;;;;;;5076840;28;20472;-78
2022/11/06 07:30:47;;;;;;;0.20;0.20;;;9.90;99.90;;;;;;5093186;28;20063;-78
2022/11/06 07:33:13;;;;;;;0.00;0.00;;;9.90;99.90;;;;;;5077074;28;20131;-78
2022/11/06 07:35:38;;;;;;;2.35;0.90;;;9.90;99.90;;;;;;5093556;28;20392;-78
2022/11/06 07:38:05;;;;;;;0.00;0.00;;;9.90;99.90;;;;;;5093685;28;20123;-78
2022/11/06 07:40:35;;;;;;;0.00;0.00;;;9.90;99.90;;;;;;5093804;28;20048;-78
2022/11/06 07:43:08;;;;;;;0.00;0.00;;;10.00;99.90;;;;;;5093724;28;20081;-78
2022/11/06 07:45:34;;;;;;;0.00;0.00;;;10.00;99.90;;;;;;5076651;28;20056;-78
2022/11/06 07:48:00;;;;;;;0.00;0.00;;;10.00;99.90;;;;;;5076523;28;20391;-79
2022/11/06 07:50:26;;;;;;;1.65;0.35;;;10.00;99.90;;;;;;5092188;28;20049;-80
2022/11/06 07:52:52;;;;;;;0.00;0.00;;;10.10;99.90;;;;;;5073779;28;20058;-80
2022/11/06 07:55:18;;;;;;;0.00;0.00;;;10.10;99.90;;;;;;5091483;28;20522;-80
2022/11/06 07:57:44;;;;;;;2.15;0.52;;;10.10;99.90;;;;;;5074734;28;20079;-79
2022/11/06 08:00:10;;;;;;;0.03;0.00;;;10.10;99.90;;;;;;5074752;28;20052;-80
2022/11/06 08:02:36;;;;;;;1.65;0.45;;;10.10;99.90;;;;;;5073862;28;20039;-80
2022/11/06 08:05:01;;;;;;;0.10;0.10;;;10.20;99.90;;;;;;5071184;28;20106;-79
2022/11/06 08:07:27;;;;;;;4.88;0.70;;;10.20;99.90;;;;;;5071388;28;20143;-78
2022/11/06 08:09:53;;;;;;;0.22;0.10;;;10.20;99.90;;;;;;5090169;28;20127;-80
2022/11/06 08:12:19;;;;;;;0.17;0.15;;;10.20;99.90;;;;;;5092075;28;20040;-79
2022/11/06 08:14:45;;;;;;;0.00;0.00;;;10.30;99.90;;;;;;5074490;28;20052;-78
2022/11/06 08:17:11;;;;;;;3.03;1.08;;;10.40;99.90;;;;;;5093185;28;20061;-78
2022/11/06 08:19:36;;;;;;;0.00;0.00;;;10.40;99.90;;;;;;5093138;28;20048;-78
2022/11/06 08:22:02;;;;;;;0.00;0.00;;;10.50;99.90;;;;;;5076319;28;20484;-78
2022/11/06 08:24:28;;;;;;;0.10;0.10;;;10.50;99.90;;;;;;5093146;28;20044;-79
2022/11/06 08:26:54;;;;;;;0.00;0.00;;;10.70;99.90;;;;;;5092938;28;20097;-78
2022/11/06 08:29:19;;;;;;;0.00;0.00;;;10.90;99.90;;;;;;5092874;28;20044;-78
2022/11/06 08:31:45;;;;;;;0.00;0.00;;;11.30;99.90;;;;;;5093121;28;20047;-78
2022/11/06 08:34:11;;;;;;;0.00;0.00;;;11.70;99.90;;;;;;5076016;28;20040;-78
2022/11/06 08:36:43;;;;;;;0.32;0.10;;;11.70;99.90;;;;;;5075351;28;20480;-79
2022/11/06 08:39:10;;;;;;;0.00;0.00;;;11.60;99.90;;;;;;5076149;28;20567;-79
2022/11/06 08:41:35;;;;;;;0.00;0.00;;;11.50;99.90;;;;;;5075853;28;20109;-79
2022/11/06 08:44:01;;;;;;;0.13;0.13;;;11.40;99.90;;;;;;5092766;28;20139;-79
2022/11/06 08:46:26;;;;;;;0.00;0.00;;;11.30;99.90;;;;;;5076150;28;20400;-79
2022/11/06 08:48:52;;;;;;;0.20;0.17;;;11.20;99.90;;;;;;5092369;28;20044;-77
2022/11/06 08:51:18;;;;;;;0.00;0.00;;;11.10;99.90;;;;;;5075805;28;20055;-79
2022/11/06 08:53:44;;;;;;;0.10;0.10;;;11.10;99.90;;;;;;5092275;28;20052;-79
2022/11/06 08:56:09;;;;;;;0.00;0.00;;;11.10;99.90;;;;;;5075696;28;20074;-79
2022/11/06 08:58:35;;;;;;;0.00;0.00;;;11.10;99.90;;;;;;5092578;28;20079;-79
2022/11/06 09:01:01;;;;;;;0.05;0.05;;;11.20;99.90;;;;;;5075630;28;20459;-79
2022/11/06 09:03:26;;;;;;;0.15;0.15;;;11.40;99.90;;;;;;5075668;28;20082;-77
2022/11/06 09:05:52;;;;;;;0.50;0.43;;;12.10;99.90;;;;;;5076228;28;20052;-77
2022/11/06 09:08:18;;;;;;;0.08;0.03;;;12.80;99.90;;;;;;5092506;28;20113;-77
2022/11/06 09:10:44;;;;;;;0.00;0.00;;;13.20;99.90;;;;;;5092240;28;20047;-77
2022/11/06 09:13:10;;;;;;;0.43;0.35;;;13.50;99.90;;;;;;5092398;28;20044;-78
2022/11/06 09:15:36;;;;;;;0.00;0.00;;;13.30;99.90;;;;;;5091795;28;20052;-77
2022/11/06 09:18:02;;;;;;;0.00;0.00;;;13.20;99.90;;;;;;5092039;28;20483;-78
2022/11/06 09:20:28;;;;;;;0.43;0.43;;;12.90;99.90;;;;;;5075697;28;20144;-77
2022/11/06 09:22:58;;;;;;;0.20;0.13;;;12.70;99.90;;;;;;5075570;28;20407;-78
2022/11/06 09:25:24;;;;;;;0.10;0.03;;;12.50;99.90;;;;;;5076179;28;20053;-78
2022/11/06 09:27:51;;;;;;;0.00;0.00;;;12.40;99.90;;;;;;5088748;28;20193;-78
2022/11/06 09:30:19;;;;;;;0.00;0.00;;;12.30;99.90;;;;;;5091825;28;20423;-78
2022/11/06 09:32:59;;;;;;;0.00;0.00;;;12.30;99.90;;;;;;5085542;28;20053;-77
2022/11/06 09:35:26;;;;;;;0.00;0.00;;;12.10;99.90;;;;;;5081950;28;20071;-78
2022/11/06 09:37:52;;;;;;;0.00;0.00;;;12.10;99.90;;;;;;5092414;28;20426;-77
2022/11/06 09:40:32;;;;;;;0.00;0.00;;;11.90;99.90;;;;;;5075611;28;20105;-77
2022/11/06 09:43:16;;;;;;;0.00;0.00;;;11.90;99.90;;;;;;5092160;28;20502;-78
2022/11/06 09:45:42;;;;;;;0.00;0.00;;;11.80;99.90;;;;;;5092834;28;20059;-78
2022/11/06 09:48:25;;;;;;;1.67;0.43;;;11.70;99.90;;;;;;5094549;28;20127;-78
2022/11/06 09:51:10;;;;;;;0.00;0.00;;;11.60;99.90;;;;;;5096063;28;20056;-78
2022/11/06 09:53:40;;;;;;;0.00;0.00;;;11.70;99.90;;;;;;5095433;28;20127;-77
2022/11/06 09:56:09;;;;;;;0.00;0.00;;;11.60;99.90;;;;;;5078353;28;20048;-77
2022/11/06 09:58:37;;;;;;;1.08;0.30;;;11.60;99.90;;;;;;5095609;28;20399;-78
2022/11/06 10:01:15;;;;;;;0.00;0.00;;;11.60;99.90;;;;;;5095585;28;20054;-78
2022/11/06 10:03:49;;;;;;;0.13;0.13;;;11.70;99.90;;;;;;5095710;28;20067;-78
2022/11/06 10:06:21;;;;;;;0.77;0.00;;;11.80;99.90;;;;;;5078594;28;20054;-78
2022/11/06 10:08:47;;;;;;;0.00;0.00;;;11.90;99.90;;;;;;5095714;28;20048;-78
2022/11/06 10:11:16;;;;;;;0.00;0.00;;;12.00;99.90;;;;;;5078370;28;20056;-78
2022/11/06 10:14:10;;;;;;;0.00;0.00;;;12.10;99.90;;;;;;5095569;28;20047;-78
2022/11/06 10:16:57;;;;;;;0.00;0.00;;;12.10;99.90;;;;;;5094996;28;20044;-78
2022/11/06 10:19:34;;;;;;;0.30;0.28;;;12.20;99.90;;;;;;5095642;28;20137;-78
2022/11/06 10:22:06;;;;;;;0.43;0.20;;;12.20;99.90;;;;;;5078385;28;20044;-78
2022/11/06 10:24:52;;;;;;;0.00;0.00;;;12.30;99.90;;;;;;5094907;28;20097;-78
2022/11/06 10:27:27;;;;;;;0.28;0.28;;;12.40;99.90;;;;;;5021106;28;20190;-78
2022/11/06 10:30:13;;;;;;;0.00;0.00;;;12.60;99.90;;;;;;5037292;28;20049;-77
2022/11/06 10:32:57;;;;;;;0.00;0.00;;;12.90;99.90;;;;;;5021290;28;20491;-78
2022/11/06 10:35:40;;;;;;;0.00;0.00;;;13.40;99.90;;;;;;5020549;28;20443;-78
2022/11/06 10:38:27;;;;;;;0.10;0.10;;;13.50;99.90;;;;;;5021019;28;20465;-78
2022/11/06 10:40:54;;;;;;;0.00;0.00;;;13.20;99.90;;;;;;5020520;28;20115;-78
2022/11/06 10:43:28;;;;;;;0.00;0.00;;;13.20;99.90;;;;;;5020381;28;20049;-78
2022/11/06 10:46:21;;;;;;;0.00;0.00;;;13.10;99.90;;;;;;5020391;28;20088;-77
2022/11/06 10:48:59;;;;;;;0.00;0.00;;;12.90;99.90;;;;;;5020263;28;20053;-77
2022/11/06 10:51:42;;;;;;;0.05;0.00;;;12.80;99.90;;;;;;5020370;28;20059;-77
2022/11/06 10:54:30;;;;;;;0.00;0.00;;;12.70;99.90;;;;;;5035994;28;20064;-78
2022/11/06 10:57:16;;;;;;;0.10;0.00;;;12.70;99.90;;;;;;5036669;28;20048;-77
2022/11/06 10:59:42;;;;;;;0.00;0.00;;;12.70;99.90;;;;;;5020059;28;20140;-77
2022/11/06 11:02:35;;;;;;;0.00;0.00;;;12.70;99.90;;;;;;5037365;28;20128;-78
2022/11/06 11:05:01;;;;;;;0.00;0.00;;;12.90;99.90;;;;;;5078249;28;20055;-78
2022/11/06 11:07:33;;;;;;;0.00;0.00;;;13.10;99.90;;;;;;5094504;28;20036;-78
2022/11/06 11:10:08;;;;;;;0.35;0.20;;;13.30;99.90;;;;;;5094208;28;20497;-77
2022/11/06 11:12:33;;;;;;;0.00;0.00;;;13.40;99.90;;;;;;5094226;28;20051;-77
2022/11/06 11:15:10;;;;;;;0.00;0.00;;;13.50;99.90;;;;;;5094013;28;20097;-77
2022/11/06 11:17:36;;;;;;;0.00;0.00;;;13.60;99.90;;;;;;5094243;28;20040;-77
2022/11/06 11:20:03;;;;;;;0.17;0.17;;;13.70;99.90;;;;;;5094051;28;20101;-77
2022/11/06 11:22:28;;;;;;;0.05;0.05;;;13.70;99.90;;;;;;5077010;28;20044;-78
2022/11/06 11:24:59;;;;;;;0.05;0.05;;;13.60;99.90;;;;;;5094087;28;20120;-77
2022/11/06 11:27:25;;;;;;;0.00;0.00;;;13.60;99.90;;;;;;5093926;28;20484;-77
2022/11/06 11:29:50;;;;;;;0.00;0.00;;;13.60;99.90;;;;;;5094404;28;20050;-77
2022/11/06 11:32:17;;;;;;;0.00;0.00;;;13.70;99.90;;;;;;5076961;28;20083;-78
2022/11/06 11:34:47;;;;;;;0.05;0.05;;;13.70;99.90;;;;;;5076815;28;20051;-78
2022/11/06 11:37:34;;;;;;;1.30;0.63;;;13.50;99.90;;;;;;5076901;28;20047;-78
2022/11/06 11:40:21;;;;;;;0.00;0.00;;;13.40;99.90;;;;;;5076890;28;20095;-78
2022/11/06 11:42:47;;;;;;;0.30;0.10;;;13.20;99.90;;;;;;5093738;28;20062;-78
2022/11/06 11:45:20;;;;;;;0.15;0.15;;;13.20;99.90;;;;;;5076598;28;20056;-78
2022/11/06 11:47:50;;;;;;;0.03;0.03;;;13.10;99.90;;;;;;5093632;28;20044;-78
2022/11/06 11:50:18;;;;;;;0.00;0.00;;;13.00;99.90;;;;;;5076274;28;20185;-78
2022/11/06 11:52:51;;;;;;;0.00;0.00;;;12.90;99.90;;;;;;5076956;28;20104;-78
2022/11/06 11:55:25;;;;;;;0.00;0.00;;;12.90;99.90;;;;;;5093850;28;20048;-78
2022/11/06 11:57:53;;;;;;;0.00;0.00;;;12.80;99.90;;;;;;5077044;28;20056;-80
2022/11/06 12:00:21;;;;;;;0.00;0.00;;;12.90;99.90;;;;;;5093205;28;20051;-78
2022/11/06 12:02:48;;;;;;;0.00;0.00;;;12.80;99.90;;;;;;5076401;28;20430;-79
2022/11/06 12:05:19;;;;;;;0.00;0.00;;;12.90;99.90;;;;;;5076280;28;20431;-78
2022/11/06 12:07:54;;;;;;;0.08;0.08;;;12.90;99.90;;;;;;5071558;28;20048;-79
2022/11/06 12:10:55;;;;;;;0.10;0.00;;;13.00;99.90;;;;;;5088154;28;20420;-79
2022/11/06 12:13:22;;;;;;;0.00;0.00;;;13.00;99.90;;;;;;5074405;28;20104;-78
2022/11/06 12:15:56;;;;;;;0.00;0.00;;;13.00;99.90;;;;;;5074744;28;20498;-78
2022/11/06 12:18:50;;;;;;;0.00;0.00;;;13.00;99.90;;;;;;5074024;28;20059;-78
2022/11/06 12:21:18;;;;;;;1.75;0.80;;;13.00;99.90;;;;;;5091573;28;20076;-77
2022/11/06 12:23:46;;;;;;;0.05;0.05;;;13.00;99.90;;;;;;5074294;28;20048;-78
2022/11/06 12:26:27;;;;;;;0.25;0.10;;;13.10;99.90;;;;;;5091404;28;20051;-78
2022/11/06 12:29:10;;;;;;;0.00;0.00;;;13.10;99.90;;;;;;5090459;28;20047;-78
2022/11/06 12:31:40;;;;;;;0.00;0.00;;;13.20;99.90;;;;;;5074794;28;20056;-77
2022/11/06 12:34:22;;;;;;;0.00;0.00;;;13.30;99.90;;;;;;5073986;28;20047;-78
2022/11/06 12:37:05;;;;;;;0.20;0.20;;;13.30;99.90;;;;;;5074364;28;20078;-78
2022/11/06 12:39:37;;;;;;;0.00;0.00;;;13.20;99.90;;;;;;5090323;28;20091;-78
2022/11/06 12:42:05;;;;;;;0.38;0.38;;;13.10;99.90;;;;;;5091125;28;20051;-78
2022/11/06 12:44:30;;;;;;;0.20;0.20;;;13.00;99.90;;;;;;5090659;28;20051;-78
2022/11/06 12:47:21;;;;;;;0.10;0.00;;;13.00;99.90;;;;;;5091135;28;20108;-79
2022/11/06 12:50:26;;;;;;;2.13;1.02;;;12.90;99.90;;;;;;5073266;28;20070;-77
2022/11/06 12:53:14;;;;;;;0.57;0.00;;;12.90;99.90;;;;;;5090024;28;20121;-78
2022/11/06 12:55:54;;;;;;;0.00;0.00;;;12.90;99.90;;;;;;5032705;28;20053;-79
2022/11/06 12:58:45;;;;;;;0.00;0.00;;;12.90;99.90;;;;;;5031840;28;20119;-79
2022/11/06 13:01:25;;;;;;;0.00;0.00;;;12.90;99.90;;;;;;5032161;28;20099;-79
2022/11/06 13:04:03;;;;;;;0.20;0.20;;;12.90;99.90;;;;;;5016941;28;20456;-79
2022/11/06 13:06:49;;;;;;;0.10;0.10;;;12.90;99.90;;;;;;5016503;28;20102;-79
2022/11/06 13:09:26;;;;;;;0.00;0.00;;;12.80;99.90;;;;;;5014618;28;20071;-78
2022/11/06 13:12:00;;;;;;;0.05;0.05;;;12.80;99.90;;;;;;5033158;28;20205;-78
2022/11/06 13:15:15;;;;;;;0.20;0.17;;;12.80;99.90;;;;;;5032632;28;20061;-79
2022/11/06 13:17:51;;;;;;;0.00;0.00;;;12.80;99.90;;;;;;4973677;28;20498;-79
2022/11/06 13:21:14;;;;;;;0.00;0.00;;;12.80;99.90;;;;;;4954390;28;20162;-79
2022/11/06 13:23:50;;;;;;;0.00;0.00;;;12.80;99.90;;;;;;4927683;29;20054;-78
2022/11/06 13:26:22;;;;;;;1.23;0.60;;;12.80;99.90;;;;;;4939043;29;20459;-79
2022/11/06 13:29:01;;;;;;;0.00;0.00;;;12.80;99.90;;;;;;4937800;29;20492;-80